Time;durP1;ratioP1;P1;durP2;ratioP2;P2;SDS_P1;SDS_P2;PMS_P1;PMS_P2;Temp;Humidity;BMP_temperature;BMP_pressure;BME280_temperature;BME280_humidity;BME280_pressure;Samples;Min_cycle;Max_cycle;Signal;HPM_P1;HPM_P2
2023/11/06 00:01:01;;;;;;;3.97;1.35;;;9.50;99.90;;;;;;4994963;28;20045;-72
2023/11/06 00:03:27;;;;;;;6.20;1.15;;;9.50;99.90;;;;;;4978497;28;20037;-72
2023/11/06 00:05:54;;;;;;;5.35;1.05;;;9.40;99.90;;;;;;4994693;28;20030;-72
2023/11/06 00:08:20;;;;;;;5.35;1.20;;;9.40;99.90;;;;;;4979102;28;20334;-73
2023/11/06 00:10:46;;;;;;;8.00;1.15;;;9.40;99.90;;;;;;5011132;28;20046;-72
2023/11/06 00:13:13;;;;;;;5.53;0.98;;;9.40;99.90;;;;;;4995186;28;20022;-72
2023/11/06 00:15:40;;;;;;;5.63;1.20;;;9.40;99.90;;;;;;4994711;28;20034;-71
2023/11/06 00:18:07;;;;;;;3.30;1.02;;;9.40;99.90;;;;;;4994806;28;20033;-72
2023/11/06 00:20:34;;;;;;;4.88;0.90;;;9.40;99.90;;;;;;4964002;28;20038;-73
2023/11/06 00:23:00;;;;;;;7.13;1.00;;;9.40;99.90;;;;;;4978005;28;20030;-72
2023/11/06 00:25:26;;;;;;;5.25;1.02;;;9.40;99.90;;;;;;4996074;28;20040;-72
2023/11/06 00:27:53;;;;;;;5.53;0.85;;;9.40;99.90;;;;;;4994510;28;20487;-72
2023/11/06 00:30:20;;;;;;;5.03;0.93;;;9.40;99.90;;;;;;4981383;28;20516;-72
2023/11/06 00:32:46;;;;;;;5.15;1.00;;;9.40;99.90;;;;;;4978988;28;20026;-73
2023/11/06 00:35:13;;;;;;;4.50;1.35;;;9.30;99.90;;;;;;4994318;28;20029;-73
2023/11/06 00:37:39;;;;;;;2.75;1.10;;;9.30;99.90;;;;;;4992584;28;20030;-72
2023/11/06 00:40:07;;;;;;;4.05;1.27;;;9.20;99.90;;;;;;4994659;28;20034;-72
2023/11/06 00:42:34;;;;;;;5.53;1.08;;;9.20;99.90;;;;;;4977157;28;20037;-72
2023/11/06 00:45:01;;;;;;;4.85;0.88;;;9.20;99.90;;;;;;4994631;28;20032;-72
2023/11/06 00:47:28;;;;;;;4.28;0.98;;;9.10;99.90;;;;;;5026756;28;20033;-73
2023/11/06 00:49:56;;;;;;;5.57;0.90;;;9.10;99.90;;;;;;4979130;28;20424;-72
2023/11/06 00:52:22;;;;;;;6.10;1.30;;;9.10;99.90;;;;;;4977433;28;20038;-72
2023/11/06 00:54:49;;;;;;;5.00;0.93;;;9.10;99.90;;;;;;4976907;28;20053;-72
2023/11/06 00:57:15;;;;;;;2.97;1.02;;;9.10;99.90;;;;;;4961226;28;20025;-72
2023/11/06 00:59:42;;;;;;;5.10;1.40;;;9.20;99.90;;;;;;4994060;28;20048;-72
2023/11/06 01:02:08;;;;;;;3.90;1.40;;;9.20;99.90;;;;;;4978890;28;20412;-71
2023/11/06 01:04:34;;;;;;;7.40;1.38;;;9.20;99.90;;;;;;4994072;28;20045;-72
2023/11/06 01:07:01;;;;;;;5.22;0.95;;;9.20;99.90;;;;;;4979746;28;20037;-72
2023/11/06 01:09:29;;;;;;;7.85;1.33;;;9.10;99.90;;;;;;4977010;28;20121;-72
2023/11/06 01:11:55;;;;;;;7.90;0.90;;;9.00;99.90;;;;;;4977616;28;20049;-71
2023/11/06 01:14:23;;;;;;;5.00;1.00;;;9.00;99.90;;;;;;4995039;28;20030;-72
2023/11/06 01:16:50;;;;;;;4.45;0.60;;;9.00;99.90;;;;;;5012078;28;20036;-72
2023/11/06 01:19:16;;;;;;;4.68;0.88;;;8.90;99.90;;;;;;4994835;28;20034;-71
2023/11/06 01:21:42;;;;;;;3.25;0.90;;;8.90;99.90;;;;;;4991449;28;20445;-71
2023/11/06 01:24:11;;;;;;;4.45;0.95;;;8.90;99.90;;;;;;4977382;28;20042;-72
2023/11/06 01:26:42;;;;;;;4.88;1.15;;;9.00;99.90;;;;;;4994676;28;20084;-72
2023/11/06 01:29:11;;;;;;;7.53;1.42;;;9.00;99.90;;;;;;4993562;28;20037;-73
2023/11/06 01:31:38;;;;;;;4.70;0.70;;;9.00;99.90;;;;;;4994790;28;20424;-73
2023/11/06 01:34:05;;;;;;;3.88;0.90;;;8.90;99.90;;;;;;4994675;28;20037;-73
2023/11/06 01:36:32;;;;;;;3.75;0.98;;;8.90;99.90;;;;;;5028602;28;20428;-73
2023/11/06 01:38:58;;;;;;;5.00;0.70;;;8.90;99.90;;;;;;4995341;28;20038;-72
2023/11/06 01:41:24;;;;;;;5.07;0.60;;;8.90;99.90;;;;;;4996751;28;20026;-73
2023/11/06 01:43:51;;;;;;;4.40;0.73;;;8.90;99.90;;;;;;4994743;28;20045;-73
2023/11/06 01:46:20;;;;;;;6.47;0.60;;;8.90;99.90;;;;;;4995964;28;20038;-72
2023/11/06 01:48:47;;;;;;;4.15;0.85;;;8.90;99.90;;;;;;4987775;28;20417;-72
2023/11/06 01:51:13;;;;;;;3.53;0.70;;;9.00;99.90;;;;;;4995090;28;20037;-71
2023/11/06 01:53:42;;;;;;;1.48;0.50;;;9.00;99.90;;;;;;5008198;28;20611;-73
2023/11/06 01:56:09;;;;;;;2.25;0.55;;;9.10;99.90;;;;;;4997160;28;20022;-73
2023/11/06 01:58:36;;;;;;;3.38;0.65;;;9.20;99.90;;;;;;5028526;28;20037;-72
2023/11/06 02:01:05;;;;;;;1.83;0.50;;;9.30;99.90;;;;;;4995208;28;20386;-72
2023/11/06 02:03:33;;;;;;;1.38;0.50;;;9.30;99.90;;;;;;4976095;28;20038;-72
2023/11/06 02:06:00;;;;;;;2.65;0.45;;;9.30;99.90;;;;;;4995035;28;20042;-73
2023/11/06 02:08:26;;;;;;;2.33;0.50;;;9.40;99.90;;;;;;4994136;28;20038;-73
2023/11/06 02:10:53;;;;;;;4.70;0.63;;;9.40;99.90;;;;;;4978308;28;20056;-71
2023/11/06 02:13:20;;;;;;;3.10;0.60;;;9.50;99.90;;;;;;4994138;28;20045;-72
2023/11/06 02:15:47;;;;;;;2.33;0.60;;;9.50;99.90;;;;;;4978127;28;20041;-73
2023/11/06 02:18:13;;;;;;;5.97;1.00;;;9.50;99.90;;;;;;4977686;28;20374;-73
2023/11/06 02:20:41;;;;;;;3.20;0.60;;;9.50;99.90;;;;;;5026822;28;20042;-72
2023/11/06 02:23:08;;;;;;;2.40;0.73;;;9.60;99.90;;;;;;5025439;28;20022;-73
2023/11/06 02:25:35;;;;;;;3.60;0.70;;;9.60;99.90;;;;;;4963859;28;20034;-73
2023/11/06 02:28:03;;;;;;;3.75;0.60;;;9.60;99.90;;;;;;5025939;28;20045;-71
2023/11/06 02:30:29;;;;;;;2.83;0.77;;;9.60;99.90;;;;;;4977518;28;20033;-72
2023/11/06 02:32:56;;;;;;;4.15;0.70;;;9.60;99.90;;;;;;4993621;28;20462;-73
2023/11/06 02:35:23;;;;;;;1.95;0.70;;;9.70;99.90;;;;;;4995881;28;20552;-72
2023/11/06 02:37:49;;;;;;;1.55;0.93;;;9.60;99.90;;;;;;4993911;28;20046;-73
2023/11/06 02:40:16;;;;;;;8.02;2.35;;;9.60;99.90;;;;;;4994599;28;20035;-73
2023/11/06 02:42:43;;;;;;;2.80;1.17;;;9.60;99.90;;;;;;4963586;28;20026;-73
2023/11/06 02:45:09;;;;;;;5.32;1.45;;;9.70;99.90;;;;;;4993528;28;20037;-73
2023/11/06 02:47:36;;;;;;;4.07;1.35;;;9.70;99.90;;;;;;4978724;28;20476;-73
2023/11/06 02:50:05;;;;;;;3.10;1.15;;;9.70;99.90;;;;;;4994958;28;20034;-73
2023/11/06 02:52:32;;;;;;;3.92;1.40;;;9.70;99.90;;;;;;4993236;28;20469;-72
2023/11/06 02:54:58;;;;;;;6.13;1.17;;;9.70;99.90;;;;;;4993439;28;20392;-73
2023/11/06 02:57:24;;;;;;;2.58;1.35;;;9.70;99.90;;;;;;4992995;28;20037;-72
2023/11/06 02:59:50;;;;;;;3.30;1.70;;;9.70;99.90;;;;;;4995004;28;20053;-73
2023/11/06 03:02:17;;;;;;;6.30;1.88;;;9.70;99.90;;;;;;4996999;28;20041;-71
2023/11/06 03:04:44;;;;;;;5.13;0.95;;;9.70;99.90;;;;;;4979508;28;20049;-72
2023/11/06 03:07:10;;;;;;;4.75;1.88;;;9.70;99.90;;;;;;4980619;28;20404;-72
2023/11/06 03:09:36;;;;;;;4.18;1.35;;;9.70;99.90;;;;;;4997359;28;20060;-72
2023/11/06 03:12:03;;;;;;;4.57;1.38;;;9.70;99.90;;;;;;4997284;28;20050;-73
2023/11/06 03:14:30;;;;;;;4.60;1.27;;;9.70;99.90;;;;;;4981213;28;20038;-72
2023/11/06 03:16:57;;;;;;;5.70;1.52;;;9.60;99.90;;;;;;4980411;28;20045;-73
2023/11/06 03:19:23;;;;;;;7.55;2.05;;;9.60;99.90;;;;;;4965705;28;20042;-72
2023/11/06 03:21:51;;;;;;;4.22;1.55;;;9.50;99.90;;;;;;4965508;28;20045;-72
2023/11/06 03:24:17;;;;;;;5.88;1.75;;;9.50;99.90;;;;;;4963369;28;20038;-71
2023/11/06 03:26:44;;;;;;;3.28;1.02;;;9.50;99.90;;;;;;4980449;28;20034;-71
2023/11/06 03:29:10;;;;;;;5.43;1.60;;;9.50;99.90;;;;;;4981783;28;20041;-71
2023/11/06 03:31:36;;;;;;;4.07;1.40;;;9.50;99.90;;;;;;4998059;28;20034;-71
2023/11/06 03:34:03;;;;;;;4.78;1.30;;;9.50;99.90;;;;;;4997307;28;20030;-71
2023/11/06 03:36:29;;;;;;;4.82;1.30;;;9.50;99.90;;;;;;4996455;28;20034;-72
2023/11/06 03:38:56;;;;;;;5.05;1.23;;;9.50;99.90;;;;;;4996741;28;20037;-72
2023/11/06 03:41:22;;;;;;;4.22;1.70;;;9.50;99.90;;;;;;4980366;28;20645;-72
2023/11/06 03:43:51;;;;;;;4.50;1.25;;;9.60;99.90;;;;;;4995483;28;20742;-71
2023/11/06 03:46:20;;;;;;;3.38;0.80;;;9.60;99.90;;;;;;5030875;28;20654;-73
2023/11/06 03:48:46;;;;;;;5.43;1.02;;;9.60;99.90;;;;;;4996464;28;20558;-72
2023/11/06 03:51:12;;;;;;;6.93;1.35;;;9.60;99.90;;;;;;4980423;28;20054;-72
2023/11/06 03:53:38;;;;;;;5.55;1.00;;;9.60;99.90;;;;;;4965788;28;20027;-72
2023/11/06 03:56:05;;;;;;;6.25;1.05;;;9.60;99.90;;;;;;4996532;28;20038;-72
2023/11/06 03:58:32;;;;;;;5.63;1.23;;;9.60;99.90;;;;;;4982026;28;20034;-72
2023/11/06 04:00:58;;;;;;;5.40;1.90;;;9.60;99.90;;;;;;4981250;28;20137;-72
2023/11/06 04:03:25;;;;;;;4.03;0.73;;;9.60;99.90;;;;;;4997979;28;20030;-72
2023/11/06 04:05:51;;;;;;;3.65;0.73;;;9.60;99.90;;;;;;4998276;28;20037;-72
2023/11/06 04:08:18;;;;;;;4.75;0.90;;;9.50;99.90;;;;;;4980855;28;20070;-71
2023/11/06 04:10:44;;;;;;;5.05;1.02;;;9.50;99.90;;;;;;4997444;28;20488;-72
2023/11/06 04:13:10;;;;;;;3.72;0.80;;;9.50;99.90;;;;;;4980080;28;20045;-72
2023/11/06 04:15:37;;;;;;;2.95;1.10;;;9.50;99.90;;;;;;4980993;28;20034;-72
2023/11/06 04:18:04;;;;;;;4.22;0.88;;;9.40;99.90;;;;;;5000063;28;20037;-72
2023/11/06 04:20:30;;;;;;;4.78;0.65;;;9.40;99.90;;;;;;4998041;28;20045;-71
2023/11/06 04:22:57;;;;;;;4.65;1.00;;;9.30;99.90;;;;;;4980392;28;20033;-71
2023/11/06 04:25:24;;;;;;;3.40;0.82;;;9.30;99.90;;;;;;4996547;28;20045;-72
2023/11/06 04:27:50;;;;;;;5.03;0.80;;;9.20;99.90;;;;;;4998100;28;20396;-72
2023/11/06 04:30:17;;;;;;;4.22;0.70;;;9.20;99.90;;;;;;4997049;28;20495;-71
2023/11/06 04:32:43;;;;;;;4.03;0.55;;;9.20;99.90;;;;;;4998005;28;20045;-72
2023/11/06 04:35:09;;;;;;;4.90;1.27;;;9.10;99.90;;;;;;4998077;28;20041;-72
2023/11/06 04:37:36;;;;;;;2.95;0.80;;;9.10;99.90;;;;;;4980972;28;20028;-71
2023/11/06 04:40:06;;;;;;;3.58;0.95;;;9.00;99.90;;;;;;5012298;28;20037;-71
2023/11/06 04:42:33;;;;;;;2.20;0.45;;;9.00;99.90;;;;;;4996027;28;20037;-72
2023/11/06 04:44:59;;;;;;;3.92;0.70;;;9.00;99.90;;;;;;4998149;28;20488;-71
2023/11/06 04:47:27;;;;;;;1.90;0.40;;;8.90;99.90;;;;;;4998160;28;20060;-71
2023/11/06 04:49:53;;;;;;;3.47;0.52;;;8.80;99.90;;;;;;4979793;28;20443;-72
2023/11/06 04:52:20;;;;;;;5.45;0.60;;;8.80;99.90;;;;;;4995728;28;20035;-72
2023/11/06 04:54:46;;;;;;;3.85;1.08;;;8.80;99.90;;;;;;4997165;28;20054;-71
2023/11/06 04:57:13;;;;;;;4.03;0.68;;;8.70;99.90;;;;;;4996860;28;20328;-72
2023/11/06 04:59:42;;;;;;;3.13;0.52;;;8.70;99.90;;;;;;4997318;28;20157;-71
2023/11/06 05:02:08;;;;;;;3.63;0.73;;;8.60;99.90;;;;;;4995826;28;20037;-72
2023/11/06 05:04:35;;;;;;;4.28;0.70;;;8.60;99.90;;;;;;4996374;28;20057;-72
2023/11/06 05:07:03;;;;;;;2.30;0.60;;;8.50;99.90;;;;;;4995861;28;20029;-72
2023/11/06 05:09:29;;;;;;;3.20;0.60;;;8.50;99.90;;;;;;4995830;28;20045;-71
2023/11/06 05:11:55;;;;;;;3.83;0.65;;;8.50;99.90;;;;;;4995627;28;20707;-72
2023/11/06 05:14:22;;;;;;;3.75;0.70;;;8.50;99.90;;;;;;4997353;28;20388;-72
2023/11/06 05:16:48;;;;;;;2.33;0.50;;;8.40;99.90;;;;;;4995837;28;20045;-71
2023/11/06 05:19:14;;;;;;;3.38;0.32;;;8.40;99.90;;;;;;4997939;28;20041;-72
2023/11/06 05:21:41;;;;;;;4.13;0.70;;;8.40;99.90;;;;;;4995763;28;20041;-72
2023/11/06 05:24:08;;;;;;;3.03;0.60;;;8.40;99.90;;;;;;4978710;28;20061;-71
2023/11/06 05:26:36;;;;;;;2.60;0.50;;;8.30;99.90;;;;;;4979215;28;20033;-71
2023/11/06 05:29:02;;;;;;;4.93;0.90;;;8.30;99.90;;;;;;4995919;28;20121;-71
2023/11/06 05:31:29;;;;;;;3.38;0.60;;;8.30;99.90;;;;;;4979291;28;20046;-71
2023/11/06 05:33:58;;;;;;;3.40;0.70;;;8.30;99.90;;;;;;4980025;28;20484;-72
2023/11/06 05:36:25;;;;;;;6.40;1.02;;;8.30;99.90;;;;;;5011412;28;20033;-71
2023/11/06 05:38:51;;;;;;;4.88;0.68;;;8.30;99.90;;;;;;4995546;28;20041;-72
2023/11/06 05:41:18;;;;;;;4.05;0.60;;;8.30;99.90;;;;;;4979683;28;20472;-72
2023/11/06 05:43:44;;;;;;;3.35;0.70;;;8.20;99.90;;;;;;4996805;28;20025;-71
2023/11/06 05:46:10;;;;;;;3.95;0.70;;;8.30;99.90;;;;;;4996661;28;20372;-72
2023/11/06 05:48:36;;;;;;;4.63;0.50;;;8.20;99.90;;;;;;4978741;28;20076;-71
2023/11/06 05:51:03;;;;;;;4.50;1.10;;;8.20;99.90;;;;;;4979401;28;20029;-72
2023/11/06 05:53:29;;;;;;;1.80;0.40;;;8.20;99.90;;;;;;4962431;28;20022;-72
2023/11/06 05:55:56;;;;;;;3.50;0.60;;;8.30;99.90;;;;;;4963301;28;20029;-72
2023/11/06 05:58:22;;;;;;;4.30;0.50;;;8.30;99.90;;;;;;5007727;28;20045;-72
2023/11/06 06:00:48;;;;;;;5.40;1.00;;;8.30;99.90;;;;;;4994644;28;20050;-71
2023/11/06 06:03:16;;;;;;;5.50;0.63;;;8.40;99.90;;;;;;4960726;28;20057;-72
2023/11/06 06:05:43;;;;;;;3.00;0.50;;;8.40;99.90;;;;;;4994486;28;20037;-72
2023/11/06 06:08:11;;;;;;;7.32;0.80;;;8.50;99.90;;;;;;4994077;28;20037;-72
2023/11/06 06:10:37;;;;;;;5.88;0.90;;;8.60;99.90;;;;;;4994768;28;20046;-72
2023/11/06 06:13:03;;;;;;;5.10;0.70;;;8.60;99.90;;;;;;4994251;28;20026;-72
2023/11/06 06:15:30;;;;;;;2.90;0.60;;;8.60;99.90;;;;;;4994707;28;20037;-71
2023/11/06 06:17:56;;;;;;;5.97;1.45;;;8.60;99.90;;;;;;4995064;28;20396;-71
2023/11/06 06:20:22;;;;;;;5.90;1.33;;;8.60;99.90;;;;;;4982942;28;20364;-72
2023/11/06 06:22:50;;;;;;;6.07;1.25;;;8.60;99.90;;;;;;4994110;28;20034;-71
2023/11/06 06:25:17;;;;;;;3.55;0.90;;;8.70;99.90;;;;;;4994816;28;20067;-71
2023/11/06 06:27:43;;;;;;;6.38;0.90;;;8.80;99.90;;;;;;4980965;28;20042;-72
2023/11/06 06:30:11;;;;;;;6.32;1.58;;;8.90;99.90;;;;;;4978176;28;20037;-72
2023/11/06 06:32:37;;;;;;;4.88;1.48;;;8.90;99.90;;;;;;4994106;28;20034;-71
2023/11/06 06:35:04;;;;;;;10.27;1.30;;;9.00;99.90;;;;;;4979707;28;20420;-71
2023/11/06 06:37:31;;;;;;;6.43;1.73;;;9.10;99.90;;;;;;4998938;28;20034;-72
2023/11/06 06:39:57;;;;;;;9.95;2.08;;;9.10;99.90;;;;;;4983427;28;20030;-72
2023/11/06 06:42:24;;;;;;;8.02;2.70;;;9.10;99.90;;;;;;4981568;28;20033;-72
2023/11/06 06:44:50;;;;;;;13.07;6.45;;;9.20;99.90;;;;;;5012631;28;20246;-74
2023/11/06 06:47:17;;;;;;;15.55;3.55;;;9.20;99.90;;;;;;4998791;28;20041;-72
2023/11/06 06:49:43;;;;;;;9.43;2.58;;;9.20;99.90;;;;;;4997774;28;20045;-74
2023/11/06 06:52:10;;;;;;;13.35;3.17;;;9.30;99.90;;;;;;4997828;28;20029;-72
2023/11/06 06:54:37;;;;;;;12.00;3.35;;;9.30;99.90;;;;;;4997555;28;20412;-72
2023/11/06 06:57:05;;;;;;;10.73;3.33;;;9.30;99.90;;;;;;4998286;28;20380;-73
2023/11/06 06:59:31;;;;;;;11.18;2.47;;;9.30;99.90;;;;;;4998427;28;20030;-72
2023/11/06 07:01:57;;;;;;;9.63;3.58;;;9.30;99.90;;;;;;4997384;28;20029;-71
2023/11/06 07:04:24;;;;;;;6.95;2.60;;;9.20;99.90;;;;;;4997179;28;20037;-72
2023/11/06 07:06:50;;;;;;;12.38;3.72;;;9.20;99.90;;;;;;4964675;28;20045;-72
2023/11/06 07:09:16;;;;;;;10.65;2.75;;;9.20;99.90;;;;;;4997299;28;20038;-73
2023/11/06 07:11:43;;;;;;;9.98;3.17;;;9.10;99.90;;;;;;4983325;28;20030;-73
2023/11/06 07:14:09;;;;;;;9.80;2.17;;;9.10;99.90;;;;;;4979745;28;20445;-72
2023/11/06 07:16:36;;;;;;;13.18;2.53;;;9.00;99.90;;;;;;4997348;28;20045;-72
2023/11/06 07:19:03;;;;;;;7.72;2.08;;;9.00;99.90;;;;;;4996534;28;20037;-73
2023/11/06 07:21:29;;;;;;;10.48;2.08;;;9.00;99.90;;;;;;4997630;28;20030;-73
2023/11/06 07:23:56;;;;;;;9.82;2.47;;;9.00;99.90;;;;;;4997624;28;20697;-72
2023/11/06 07:26:22;;;;;;;12.27;2.55;;;9.00;99.90;;;;;;5012735;28;23231;-72
2023/11/06 07:28:49;;;;;;;10.57;2.58;;;9.00;99.90;;;;;;4979957;28;20033;-72
2023/11/06 07:31:15;;;;;;;15.25;2.53;;;9.00;99.90;;;;;;4981709;28;20037;-71
2023/11/06 07:33:42;;;;;;;13.15;2.50;;;9.00;99.90;;;;;;4981029;28;20253;-72
2023/11/06 07:36:08;;;;;;;13.88;2.80;;;9.00;99.90;;;;;;4996198;28;20026;-72
2023/11/06 07:38:35;;;;;;;13.23;2.85;;;9.00;99.90;;;;;;4980261;28;20034;-70
2023/11/06 07:41:02;;;;;;;8.30;3.03;;;9.10;99.90;;;;;;4979299;28;20030;-73
2023/11/06 07:43:29;;;;;;;13.68;4.25;;;9.10;99.90;;;;;;4962699;28;20041;-73
2023/11/06 07:45:56;;;;;;;5.47;2.15;;;9.10;99.90;;;;;;4977912;28;20050;-75
2023/11/06 07:48:22;;;;;;;8.50;2.00;;;9.10;99.90;;;;;;4963082;28;20045;-74
2023/11/06 07:50:48;;;;;;;10.32;2.42;;;9.10;99.90;;;;;;4995306;28;20101;-73
2023/11/06 07:53:14;;;;;;;10.82;1.95;;;9.10;99.90;;;;;;4981327;28;20034;-72
2023/11/06 07:55:41;;;;;;;9.45;1.67;;;9.20;99.90;;;;;;4998855;28;20038;-72
2023/11/06 07:58:07;;;;;;;10.18;1.33;;;9.30;99.90;;;;;;4997321;28;20041;-72
2023/11/06 08:00:35;;;;;;;11.65;2.72;;;9.40;99.90;;;;;;4997444;28;20037;-73
2023/11/06 08:03:02;;;;;;;9.10;1.67;;;9.50;99.90;;;;;;4997446;28;20030;-74
2023/11/06 08:05:28;;;;;;;13.77;2.40;;;9.50;99.90;;;;;;4991460;28;20038;-72
2023/11/06 08:07:55;;;;;;;9.30;1.67;;;9.50;99.90;;;;;;4997846;28;20037;-73
2023/11/06 08:10:26;;;;;;;8.40;1.02;;;9.50;99.90;;;;;;4997479;28;20034;-72
2023/11/06 08:12:53;;;;;;;6.18;1.55;;;9.50;99.90;;;;;;4998927;28;20492;-73
2023/11/06 08:15:20;;;;;;;8.35;1.85;;;9.60;99.90;;;;;;4981282;28;20053;-72
2023/11/06 08:17:46;;;;;;;10.45;1.25;;;9.60;99.90;;;;;;4999259;28;21357;-73
2023/11/06 08:20:12;;;;;;;9.00;1.80;;;9.60;99.90;;;;;;4998778;28;20057;-73
2023/11/06 08:22:39;;;;;;;8.68;1.23;;;9.60;99.90;;;;;;4981690;28;20405;-72
2023/11/06 08:25:05;;;;;;;10.38;1.35;;;9.60;99.90;;;;;;4998012;28;20030;-72
2023/11/06 08:27:32;;;;;;;8.23;1.50;;;9.70;99.90;;;;;;4965661;28;20033;-73
2023/11/06 08:30:02;;;;;;;9.43;1.23;;;9.60;99.90;;;;;;4981644;28;20397;-73
2023/11/06 08:32:28;;;;;;;6.55;1.45;;;9.70;99.90;;;;;;4981387;28;20046;-72
2023/11/06 08:34:55;;;;;;;7.40;1.67;;;9.70;99.90;;;;;;4997223;28;20508;-72
2023/11/06 08:37:21;;;;;;;6.82;1.20;;;9.70;99.90;;;;;;4997091;28;20426;-73
2023/11/06 08:39:47;;;;;;;7.80;0.85;;;9.70;99.90;;;;;;4981901;28;20345;-72
2023/11/06 08:42:14;;;;;;;4.63;0.73;;;9.60;99.90;;;;;;4964885;28;20037;-72
2023/11/06 08:44:42;;;;;;;7.88;0.90;;;9.70;99.90;;;;;;5013493;28;20706;-72
2023/11/06 08:47:12;;;;;;;11.02;1.63;;;9.70;99.90;;;;;;4965026;28;20041;-73
2023/11/06 08:49:38;;;;;;;7.22;1.25;;;9.80;99.90;;;;;;4997614;28;20042;-72
2023/11/06 08:52:05;;;;;;;12.55;1.92;;;9.90;99.90;;;;;;4981743;28;20034;-73
2023/11/06 08:54:31;;;;;;;9.68;1.10;;;9.90;99.90;;;;;;4997607;28;20025;-73
2023/11/06 08:56:58;;;;;;;6.75;1.02;;;10.00;99.90;;;;;;4980788;28;20114;-72
2023/11/06 08:59:24;;;;;;;6.25;1.20;;;10.00;99.90;;;;;;4997035;28;20046;-72
2023/11/06 09:01:51;;;;;;;7.05;1.75;;;10.20;99.90;;;;;;4981063;28;20048;-72
2023/11/06 09:04:18;;;;;;;12.23;1.33;;;10.30;99.90;;;;;;4980538;28;20444;-72
2023/11/06 09:06:46;;;;;;;11.32;1.92;;;10.40;99.90;;;;;;4980247;28;20041;-73
2023/11/06 09:09:12;;;;;;;16.08;5.55;;;10.50;99.90;;;;;;4998316;28;20476;-73
2023/11/06 09:11:42;;;;;;;12.88;2.08;;;10.70;99.90;;;;;;4998188;28;20034;-74
2023/11/06 09:14:10;;;;;;;9.85;1.90;;;10.80;99.90;;;;;;5030066;28;20044;-73
2023/11/06 09:16:38;;;;;;;12.38;2.15;;;11.00;99.90;;;;;;4965091;28;20034;-72
2023/11/06 09:19:08;;;;;;;13.63;2.10;;;11.20;99.90;;;;;;4998528;28;20516;-73
2023/11/06 09:21:35;;;;;;;10.13;1.40;;;11.30;99.90;;;;;;4997193;28;23031;-72
2023/11/06 09:24:02;;;;;;;9.05;1.02;;;11.50;99.90;;;;;;4996894;28;20033;-73
2023/11/06 09:26:28;;;;;;;12.20;1.30;;;11.60;99.90;;;;;;4997501;28;20045;-73
2023/11/06 09:28:55;;;;;;;11.10;1.45;;;11.70;99.90;;;;;;4998374;28;20365;-73
2023/11/06 09:31:21;;;;;;;7.63;1.20;;;11.70;99.90;;;;;;4997680;28;20464;-74
2023/11/06 09:33:48;;;;;;;14.60;1.65;;;11.70;99.90;;;;;;4997368;28;20317;-73
2023/11/06 09:36:15;;;;;;;13.63;2.17;;;11.60;99.90;;;;;;4997433;28;20060;-73
2023/11/06 09:38:42;;;;;;;8.70;1.30;;;11.60;99.90;;;;;;5013201;28;20060;-73
2023/11/06 09:41:09;;;;;;;10.75;1.38;;;11.60;99.90;;;;;;4979166;28;20038;-73
2023/11/06 09:43:35;;;;;;;10.27;1.80;;;11.60;99.90;;;;;;4980111;28;20527;-73
2023/11/06 09:46:04;;;;;;;7.63;1.25;;;11.70;99.90;;;;;;4996661;28;20033;-74
2023/11/06 09:48:31;;;;;;;11.13;1.55;;;11.80;99.90;;;;;;4996571;28;20040;-73
2023/11/06 09:50:57;;;;;;;12.82;2.28;;;12.00;99.90;;;;;;4995077;28;20069;-74
2023/11/06 09:53:24;;;;;;;10.43;1.65;;;12.10;99.90;;;;;;4979114;28;20619;-73
2023/11/06 09:55:53;;;;;;;9.95;2.08;;;12.40;99.90;;;;;;5011073;28;20474;-74
2023/11/06 09:58:19;;;;;;;9.90;2.00;;;12.60;99.90;;;;;;4978479;28;20428;-72
2023/11/06 10:00:50;;;;;;;11.90;1.80;;;12.80;99.90;;;;;;4996121;28;20061;-72
2023/11/06 10:03:17;;;;;;;7.00;1.35;;;12.90;99.90;;;;;;4995600;28;20034;-73
2023/11/06 10:05:43;;;;;;;8.77;1.33;;;13.00;99.90;;;;;;4974485;28;21162;-74
2023/11/06 10:08:26;;;;;;;9.90;1.33;;;13.10;99.90;;;;;;4996469;28;20034;-73
2023/11/06 10:11:00;;;;;;;10.05;1.85;;;13.10;99.90;;;;;;5024892;28;20038;-72
2023/11/06 10:13:30;;;;;;;10.52;1.35;;;13.10;99.90;;;;;;5009362;28;20033;-72
2023/11/06 10:16:16;;;;;;;7.82;1.63;;;13.10;99.90;;;;;;4995415;28;20033;-72
2023/11/06 10:18:42;;;;;;;10.70;1.63;;;13.10;99.90;;;;;;4997132;28;20474;-73
2023/11/06 10:21:09;;;;;;;9.85;2.13;;;13.20;99.90;;;;;;4995799;28;20041;-73
2023/11/06 10:23:37;;;;;;;10.35;1.83;;;13.20;99.90;;;;;;4995800;28;20029;-74
2023/11/06 10:26:12;;;;;;;5.25;1.10;;;13.10;99.90;;;;;;4995520;28;20037;-73
2023/11/06 10:28:39;;;;;;;9.90;1.83;;;13.10;99.90;;;;;;5023462;28;20030;-74
2023/11/06 10:31:05;;;;;;;9.93;2.42;;;13.00;99.90;;;;;;4997152;28;20038;-72
2023/11/06 10:33:35;;;;;;;12.02;1.80;;;13.10;99.90;;;;;;4993678;28;21632;-74
2023/11/06 10:36:13;;;;;;;8.07;1.20;;;13.10;99.90;;;;;;5010327;28;20034;-72
2023/11/06 10:38:41;;;;;;;11.32;1.33;;;13.10;99.90;;;;;;4993566;28;20044;-73
2023/11/06 10:41:24;;;;;;;8.45;1.60;;;13.00;99.90;;;;;;5025035;28;20041;-73
2023/11/06 10:44:00;;;;;;;9.35;1.77;;;13.10;99.90;;;;;;4993403;28;20037;-73
2023/11/06 10:46:31;;;;;;;8.10;1.10;;;13.10;99.90;;;;;;4977737;28;20064;-73
2023/11/06 10:49:27;;;;;;;7.30;1.20;;;13.20;99.90;;;;;;5009202;28;20034;-73
2023/11/06 10:51:55;;;;;;;10.57;1.75;;;13.30;99.90;;;;;;4994334;28;20440;-73
2023/11/06 10:54:24;;;;;;;9.98;1.38;;;13.40;99.90;;;;;;4994877;28;20432;-74
2023/11/06 10:56:56;;;;;;;7.10;1.30;;;13.40;99.90;;;;;;5026880;28;20396;-73
2023/11/06 10:59:28;;;;;;;9.95;1.67;;;13.40;99.90;;;;;;5009811;28;20037;-73
2023/11/06 11:01:58;;;;;;;14.80;2.03;;;13.30;99.90;;;;;;4994904;28;20033;-74
2023/11/06 11:04:26;;;;;;;8.93;1.63;;;13.30;99.90;;;;;;4994402;28;20285;-74
2023/11/06 11:06:53;;;;;;;10.20;1.83;;;13.30;99.90;;;;;;4979092;28;20034;-74
2023/11/06 11:09:19;;;;;;;12.30;2.13;;;13.20;99.90;;;;;;4977951;28;20808;-74
2023/11/06 11:11:46;;;;;;;8.02;1.45;;;13.20;99.90;;;;;;4976603;28;20797;-73
2023/11/06 11:14:15;;;;;;;6.45;1.02;;;13.20;99.90;;;;;;5009799;28;20049;-73
2023/11/06 11:16:44;;;;;;;10.25;1.27;;;13.30;99.90;;;;;;4976357;28;20038;-74
2023/11/06 11:19:31;;;;;;;8.65;1.50;;;13.30;99.90;;;;;;4996171;28;20481;-74
2023/11/06 11:22:03;;;;;;;10.20;1.27;;;13.40;99.90;;;;;;4998599;28;20037;-74
2023/11/06 11:24:42;;;;;;;9.87;1.20;;;13.40;99.90;;;;;;4998851;28;20396;-73
2023/11/06 11:27:12;;;;;;;11.27;2.65;;;13.30;99.90;;;;;;4981822;28;20036;-73
2023/11/06 11:29:54;;;;;;;5.82;1.10;;;13.30;99.90;;;;;;4999365;28;20037;-73
2023/11/06 11:32:27;;;;;;;14.80;4.70;;;13.30;99.90;;;;;;4999046;28;20481;-73
2023/11/06 11:34:57;;;;;;;7.53;2.15;;;13.30;99.90;;;;;;4980295;28;20285;-73
2023/11/06 11:37:26;;;;;;;9.55;1.70;;;13.20;99.90;;;;;;4998732;28;20149;-75
2023/11/06 11:39:58;;;;;;;13.77;2.33;;;13.20;99.90;;;;;;4978159;28;20034;-73
2023/11/06 11:42:25;;;;;;;10.80;1.40;;;13.10;99.90;;;;;;5030184;28;20037;-75
2023/11/06 11:44:57;;;;;;;9.13;1.00;;;13.00;99.90;;;;;;4999450;28;20469;-74
2023/11/06 11:47:23;;;;;;;7.15;1.15;;;12.90;99.90;;;;;;4980783;28;20034;-73
2023/11/06 11:49:51;;;;;;;8.55;1.63;;;12.90;99.90;;;;;;4982853;28;20084;-74
2023/11/06 11:52:24;;;;;;;10.25;1.25;;;12.80;99.90;;;;;;4996372;28;20040;-74
2023/11/06 11:54:51;;;;;;;7.03;1.20;;;12.90;99.90;;;;;;5000499;28;20041;-73
2023/11/06 11:57:17;;;;;;;9.63;1.00;;;12.90;99.90;;;;;;4980738;28;20533;-72
2023/11/06 11:59:47;;;;;;;7.95;1.35;;;13.00;99.90;;;;;;5000360;28;20041;-74
2023/11/06 12:02:26;;;;;;;9.88;1.95;;;13.00;99.90;;;;;;4983700;28;21139;-75
2023/11/06 12:05:11;;;;;;;5.88;1.10;;;12.90;99.90;;;;;;5013164;28;20500;-74
2023/11/06 12:07:44;;;;;;;10.63;1.40;;;12.90;99.90;;;;;;4991214;28;20044;-74
2023/11/06 12:10:13;;;;;;;6.40;1.58;;;13.00;99.90;;;;;;4979880;28;20057;-72
2023/11/06 12:12:40;;;;;;;13.25;1.60;;;13.00;99.90;;;;;;4965736;28;20501;-74
2023/11/06 12:15:09;;;;;;;9.00;1.75;;;13.10;99.90;;;;;;4981506;28;20038;-73
2023/11/06 12:17:37;;;;;;;6.68;1.08;;;13.00;99.90;;;;;;4998696;28;20021;-74
2023/11/06 12:20:13;;;;;;;13.27;1.73;;;13.00;99.90;;;;;;4996359;28;20022;-73
2023/11/06 12:22:46;;;;;;;6.50;1.35;;;13.10;99.90;;;;;;5030043;28;20381;-74
2023/11/06 12:25:14;;;;;;;8.63;1.85;;;13.20;99.90;;;;;;5013933;28;21045;-73
2023/11/06 12:27:40;;;;;;;11.02;1.25;;;13.20;99.90;;;;;;4998298;28;20036;-74
2023/11/06 12:30:08;;;;;;;9.10;1.70;;;13.30;99.90;;;;;;4982173;28;20030;-74
2023/11/06 12:32:36;;;;;;;10.10;1.38;;;13.30;99.90;;;;;;4997438;28;20041;-74
2023/11/06 12:35:06;;;;;;;8.32;1.25;;;13.20;99.90;;;;;;4997363;28;20041;-74
2023/11/06 12:37:49;;;;;;;6.38;0.85;;;13.10;99.90;;;;;;4998800;28;20069;-74
2023/11/06 12:40:16;;;;;;;;;;;13.10;99.90;;;;;;4999608;28;20030;-74
2023/11/06 12:42:45;;;;;;;6.72;1.15;;;13.10;99.90;;;;;;5013831;28;19909;-74
2023/11/06 12:45:30;;;;;;;7.38;2.08;;;13.10;99.90;;;;;;4997454;28;20519;-75
2023/11/06 12:48:02;;;;;;;7.60;1.40;;;13.00;99.90;;;;;;4998711;28;20033;-74
2023/11/06 12:50:32;;;;;;;7.80;0.90;;;12.90;99.90;;;;;;5027436;28;20064;-73
2023/11/06 12:52:58;;;;;;;6.55;1.02;;;12.90;99.90;;;;;;4998038;28;20033;-75
2023/11/06 12:55:24;;;;;;;6.55;1.05;;;12.80;99.90;;;;;;4980700;28;20481;-74